createdAt,value
2022-12-11T00:00:05.681Z,16.07
2022-12-11T00:00:15.681Z,16.07
2022-12-11T00:00:25.676Z,16.07
2022-12-11T00:00:35.679Z,16.06
2022-12-11T00:00:45.680Z,16.07
2022-12-11T00:00:55.680Z,16.07
2022-12-11T00:01:05.682Z,16.06
2022-12-11T00:01:15.682Z,16.07
2022-12-11T00:01:25.698Z,16.07
2022-12-11T00:01:35.685Z,16.07
2022-12-11T00:01:45.740Z,16.06
2022-12-11T00:01:55.717Z,16.06
2022-12-11T00:02:05.774Z,16.04
2022-12-11T00:02:15.781Z,16.07
2022-12-11T00:02:25.735Z,16.07
2022-12-11T00:02:35.689Z,16.06
2022-12-11T00:02:45.723Z,16.06
2022-12-11T00:02:55.698Z,16.07
2022-12-11T00:03:05.751Z,16.07
2022-12-11T00:03:16.364Z,16.04
2022-12-11T00:03:25.752Z,16.07
2022-12-11T00:03:35.735Z,16.07
2022-12-11T00:03:45.696Z,16.07
2022-12-11T00:03:55.696Z,16.06
2022-12-11T00:04:05.705Z,16.06
2022-12-11T00:04:15.699Z,16.06
2022-12-11T00:04:25.716Z,16.07
2022-12-11T00:04:35.701Z,16.06
2022-12-11T00:04:45.699Z,16.07
2022-12-11T00:04:55.705Z,16.06
2022-12-11T00:05:05.705Z,16.06
2022-12-11T00:05:15.707Z,16.06
2022-12-11T00:05:25.705Z,16.07
2022-12-11T00:05:35.689Z,16.07
2022-12-11T00:05:45.707Z,16.06
2022-12-11T00:05:55.713Z,16.07
2022-12-11T00:06:05.706Z,16.07
2022-12-11T00:06:15.725Z,16.06
2022-12-11T00:06:25.726Z,16.07
2022-12-11T00:06:35.711Z,16.07
2022-12-11T00:06:45.710Z,16.08
2022-12-11T00:06:55.710Z,16.07
2022-12-11T00:07:05.710Z,16.06
2022-12-11T00:07:15.714Z,16.07
2022-12-11T00:07:25.712Z,16.07
2022-12-11T00:07:35.717Z,16.08
2022-12-11T00:07:45.782Z,16.08
2022-12-11T00:07:55.775Z,16.08
2022-12-11T00:08:05.738Z,16.08
2022-12-11T00:08:15.806Z,16.10
2022-12-11T00:08:25.765Z,16.10
2022-12-11T00:08:35.723Z,16.10
2022-12-11T00:08:45.718Z,16.10
2022-12-11T00:08:55.725Z,16.10
2022-12-11T00:09:05.720Z,16.10
2022-12-11T00:09:15.723Z,16.08
2022-12-11T00:09:25.727Z,16.11
2022-12-11T00:09:35.722Z,16.11
2022-12-11T00:09:45.726Z,16.11
2022-12-11T00:09:55.727Z,16.10
2022-12-11T00:10:05.728Z,16.11
2022-12-11T00:10:15.728Z,16.13
2022-12-11T00:10:25.729Z,16.13
2022-12-11T00:10:38.046Z,16.13
2022-12-11T00:10:45.729Z,16.13
2022-12-11T00:10:55.733Z,16.13
2022-12-11T00:11:05.734Z,16.16
2022-12-11T00:11:15.737Z,16.16
2022-12-11T00:11:25.761Z,16.16
2022-12-11T00:11:35.762Z,16.16
2022-12-11T00:11:45.735Z,16.14
2022-12-11T00:11:55.738Z,16.14
2022-12-11T00:12:05.734Z,16.14
2022-12-11T00:12:15.735Z,16.14
2022-12-11T00:12:25.740Z,16.16
2022-12-11T00:12:35.738Z,16.16
2022-12-11T00:12:45.737Z,16.14
2022-12-11T00:12:55.739Z,16.17
2022-12-11T00:13:05.743Z,16.17
2022-12-11T00:13:15.741Z,16.18
2022-12-11T00:13:25.742Z,16.17
2022-12-11T00:13:35.745Z,16.17
2022-12-11T00:13:45.748Z,16.22
2022-12-11T00:13:55.745Z,16.17
2022-12-11T00:14:05.745Z,16.22
2022-12-11T00:14:15.746Z,16.18
2022-12-11T00:14:25.750Z,16.17
2022-12-11T00:14:35.752Z,16.17
2022-12-11T00:14:45.750Z,16.18
2022-12-11T00:14:55.752Z,16.17
2022-12-11T00:15:05.757Z,16.18
2022-12-11T00:15:15.760Z,16.17
2022-12-11T00:15:25.755Z,16.18
2022-12-11T00:15:35.756Z,16.22
2022-12-11T00:15:45.754Z,16.23
2022-12-11T00:15:55.758Z,16.22
2022-12-11T00:16:05.756Z,16.23
2022-12-11T00:16:15.822Z,16.22
2022-12-11T00:16:27.244Z,16.23
2022-12-11T00:16:35.980Z,16.25
2022-12-11T00:16:45.788Z,16.23
2022-12-11T00:16:55.832Z,16.25
2022-12-11T00:17:05.792Z,16.25
2022-12-11T00:17:15.765Z,16.25
2022-12-11T00:17:25.766Z,16.26
2022-12-11T00:17:35.766Z,16.26
2022-12-11T00:17:45.777Z,16.27
2022-12-11T00:17:55.767Z,16.27
2022-12-11T00:18:05.771Z,16.26
2022-12-11T00:18:15.769Z,16.27
2022-12-11T00:18:25.773Z,16.27
2022-12-11T00:18:35.772Z,16.27
2022-12-11T00:18:45.773Z,16.29
2022-12-11T00:18:55.774Z,16.29
2022-12-11T00:19:05.777Z,16.27
2022-12-11T00:19:15.783Z,16.29
2022-12-11T00:19:25.812Z,16.29
2022-12-11T00:19:35.761Z,16.29
2022-12-11T00:19:45.778Z,16.27
2022-12-11T00:19:55.783Z,16.27
2022-12-11T00:20:05.782Z,16.27
2022-12-11T00:20:15.785Z,16.29
2022-12-11T00:20:25.787Z,16.30
2022-12-11T00:20:35.786Z,16.29
2022-12-11T00:20:45.790Z,16.30
2022-12-11T00:20:55.787Z,16.30
2022-12-11T00:21:05.788Z,16.32
2022-12-11T00:21:15.789Z,16.32
2022-12-11T00:21:25.801Z,16.32
2022-12-11T00:21:35.789Z,16.32
2022-12-11T00:21:45.792Z,16.33
2022-12-11T00:21:55.793Z,16.32
2022-12-11T00:22:05.793Z,16.33
2022-12-11T00:22:15.793Z,16.33
2022-12-11T00:22:25.794Z,16.34
2022-12-11T00:22:35.797Z,16.33
2022-12-11T00:22:45.797Z,16.33
2022-12-11T00:22:55.803Z,16.33
2022-12-11T00:23:05.802Z,16.32
2022-12-11T00:23:15.803Z,16.32
2022-12-11T00:23:25.800Z,16.33
2022-12-11T00:23:35.801Z,16.33
2022-12-11T00:23:45.802Z,16.34
2022-12-11T00:23:55.801Z,16.33
2022-12-11T00:24:05.808Z,16.33
2022-12-11T00:24:15.804Z,16.34
2022-12-11T00:24:25.819Z,16.34
2022-12-11T00:24:35.812Z,16.32
2022-12-11T00:24:45.819Z,16.32
2022-12-11T00:24:55.812Z,16.32
2022-12-11T00:25:05.811Z,16.33
2022-12-11T00:25:15.795Z,16.32
2022-12-11T00:25:25.811Z,16.34
2022-12-11T00:25:35.814Z,16.33
2022-12-11T00:25:45.813Z,16.34
2022-12-11T00:25:55.813Z,16.33
2022-12-11T00:26:05.818Z,16.34
2022-12-11T00:26:15.815Z,16.34
2022-12-11T00:26:25.877Z,16.34
2022-12-11T00:26:35.801Z,16.34
2022-12-11T00:26:45.817Z,16.34
2022-12-11T00:26:55.822Z,16.34
2022-12-11T00:27:05.821Z,16.34
2022-12-11T00:27:15.820Z,16.34
2022-12-11T00:27:25.822Z,16.36
2022-12-11T00:27:35.826Z,16.36
2022-12-11T00:27:45.825Z,16.37
2022-12-11T00:27:55.828Z,16.37
2022-12-11T00:28:05.828Z,16.36
2022-12-11T00:28:15.825Z,16.36
2022-12-11T00:28:25.827Z,16.36
2022-12-11T00:28:35.836Z,16.36
2022-12-11T00:28:45.837Z,16.37
2022-12-11T00:28:55.829Z,16.37
2022-12-11T00:29:05.832Z,16.37
2022-12-11T00:29:15.831Z,16.36
2022-12-11T00:29:25.959Z,16.37
2022-12-11T00:29:35.856Z,16.40
2022-12-11T00:29:45.839Z,16.41
2022-12-11T00:29:55.838Z,16.40
2022-12-11T00:30:05.838Z,16.41
2022-12-11T00:30:15.836Z,16.40
2022-12-11T00:30:25.838Z,16.41
2022-12-11T00:30:35.819Z,16.41
2022-12-11T00:30:45.841Z,16.40
2022-12-11T00:30:55.845Z,16.41
2022-12-11T00:31:05.844Z,16.41
2022-12-11T00:31:15.845Z,16.41
2022-12-11T00:31:25.868Z,16.42
2022-12-11T00:31:35.874Z,16.40
2022-12-11T00:31:45.910Z,16.42
2022-12-11T00:31:55.916Z,16.41
2022-12-11T00:32:05.894Z,16.41
2022-12-11T00:32:15.880Z,16.40
2022-12-11T00:32:28.352Z,16.41
2022-12-11T00:32:37.704Z,16.41
2022-12-11T00:32:45.848Z,16.41
2022-12-11T00:32:55.832Z,16.41
2022-12-11T00:33:05.851Z,16.42
2022-12-11T00:33:15.852Z,16.41
2022-12-11T00:33:25.850Z,16.42
2022-12-11T00:33:35.851Z,16.44
2022-12-11T00:33:45.849Z,16.44
2022-12-11T00:33:55.856Z,16.42
2022-12-11T00:34:05.852Z,16.42
2022-12-11T00:34:15.856Z,16.41
2022-12-11T00:34:26.452Z,16.44
2022-12-11T00:34:35.858Z,16.44
2022-12-11T00:34:45.855Z,16.44
2022-12-11T00:34:55.858Z,16.45
2022-12-11T00:35:05.840Z,16.45
2022-12-11T00:35:15.858Z,16.42
2022-12-11T00:35:25.858Z,16.44
2022-12-11T00:35:35.863Z,16.44
2022-12-11T00:35:45.863Z,16.45
2022-12-11T00:35:55.866Z,16.44
2022-12-11T00:36:05.863Z,16.42
2022-12-11T00:36:15.865Z,16.45
2022-12-11T00:36:25.880Z,16.44
2022-12-11T00:36:35.902Z,16.44
2022-12-11T00:36:45.865Z,16.44
2022-12-11T00:36:55.866Z,16.44
2022-12-11T00:37:05.917Z,16.42
2022-12-11T00:37:15.886Z,16.42
2022-12-11T00:37:25.900Z,16.44
2022-12-11T00:37:35.965Z,16.44
2022-12-11T00:37:45.872Z,16.42
2022-12-11T00:37:55.869Z,16.42
2022-12-11T00:38:05.872Z,16.42
2022-12-11T00:38:15.871Z,16.44
2022-12-11T00:38:25.872Z,16.42
2022-12-11T00:38:35.871Z,16.44
2022-12-11T00:38:45.872Z,16.44
2022-12-11T00:38:55.873Z,16.42
2022-12-11T00:39:05.876Z,16.44
2022-12-11T00:39:15.882Z,16.45
2022-12-11T00:39:26.441Z,16.42
2022-12-11T00:39:35.876Z,16.42
2022-12-11T00:39:45.876Z,16.44
2022-12-11T00:39:55.883Z,16.44
2022-12-11T00:40:05.877Z,16.44
2022-12-11T00:40:15.880Z,16.42
2022-12-11T00:40:25.882Z,16.42
2022-12-11T00:40:35.882Z,16.44
2022-12-11T00:40:45.861Z,16.44
2022-12-11T00:40:55.881Z,16.44
2022-12-11T00:41:05.881Z,16.44
2022-12-11T00:41:15.880Z,16.44
2022-12-11T00:41:25.887Z,16.44
2022-12-11T00:41:35.881Z,16.44
2022-12-11T00:41:45.884Z,16.42
2022-12-11T00:41:55.885Z,16.44
2022-12-11T00:42:05.883Z,16.44
2022-12-11T00:42:15.884Z,16.44
2022-12-11T00:42:25.891Z,16.42
2022-12-11T00:42:35.887Z,16.45
2022-12-11T00:42:45.887Z,16.44
2022-12-11T00:42:55.887Z,16.40
2022-12-11T00:43:05.889Z,16.42
2022-12-11T00:43:15.889Z,16.41
2022-12-11T00:43:25.889Z,16.42
2022-12-11T00:43:35.891Z,16.42
2022-12-11T00:43:45.891Z,16.41
2022-12-11T00:43:55.898Z,16.42
2022-12-11T00:44:05.901Z,16.41
2022-12-11T00:44:15.893Z,16.41
2022-12-11T00:44:26.443Z,16.41
2022-12-11T00:44:35.900Z,16.41
2022-12-11T00:44:45.900Z,16.41
2022-12-11T00:44:55.898Z,16.41
2022-12-11T00:45:05.900Z,16.41
2022-12-11T00:45:15.902Z,16.40
2022-12-11T00:45:25.906Z,16.40
2022-12-11T00:45:35.939Z,16.37
2022-12-11T00:45:45.937Z,16.37
2022-12-11T00:45:55.966Z,16.40
2022-12-11T00:46:05.951Z,16.41
2022-12-11T00:46:15.952Z,16.40
2022-12-11T00:46:25.910Z,16.40
2022-12-11T00:46:35.909Z,16.40
2022-12-11T00:46:45.912Z,16.37
2022-12-11T00:46:55.924Z,16.37
2022-12-11T00:47:05.912Z,16.40
2022-12-11T00:47:15.911Z,16.37
2022-12-11T00:47:25.914Z,16.37
2022-12-11T00:47:35.919Z,16.37
2022-12-11T00:47:45.918Z,16.37
2022-12-11T00:47:55.920Z,16.36
2022-12-11T00:48:05.922Z,16.36
2022-12-11T00:48:15.919Z,16.36
2022-12-11T00:48:25.935Z,16.37
2022-12-11T00:48:35.922Z,16.37
2022-12-11T00:48:45.921Z,16.36
2022-12-11T00:48:55.924Z,16.36
2022-12-11T00:49:05.924Z,16.36
2022-12-11T00:49:15.926Z,16.34
2022-12-11T00:49:26.450Z,16.36
2022-12-11T00:49:35.928Z,16.36
2022-12-11T00:49:49.759Z,16.34
2022-12-11T00:49:55.928Z,16.33
2022-12-11T00:50:05.929Z,16.34
2022-12-11T00:50:15.937Z,16.34
2022-12-11T00:50:25.931Z,16.33
2022-12-11T00:50:35.915Z,16.34
2022-12-11T00:50:45.933Z,16.34
2022-12-11T00:50:55.933Z,16.33
2022-12-11T00:51:05.956Z,16.32
2022-12-11T00:51:15.934Z,16.33
2022-12-11T00:51:25.938Z,16.32
2022-12-11T00:51:35.935Z,16.32
2022-12-11T00:51:45.942Z,16.32
2022-12-11T00:51:55.937Z,16.29
2022-12-11T00:52:05.937Z,16.30
2022-12-11T00:52:15.940Z,16.30
2022-12-11T00:52:25.939Z,16.29
2022-12-11T00:52:35.941Z,16.27
2022-12-11T00:52:45.939Z,16.29
2022-12-11T00:52:55.941Z,16.27
2022-12-11T00:53:05.942Z,16.29
2022-12-11T00:53:15.942Z,16.27
2022-12-11T00:53:25.945Z,16.26
2022-12-11T00:53:35.944Z,16.27
2022-12-11T00:53:45.946Z,16.27
2022-12-11T00:53:55.945Z,16.27
2022-12-11T00:54:05.947Z,16.25
2022-12-11T00:54:15.947Z,16.26
2022-12-11T00:54:25.973Z,16.25
2022-12-11T00:54:35.949Z,16.25
2022-12-11T00:54:45.953Z,16.25
2022-12-11T00:54:55.959Z,16.25
2022-12-11T00:55:05.950Z,16.23
2022-12-11T00:55:15.951Z,16.23
2022-12-11T00:55:25.955Z,16.25
2022-12-11T00:55:35.949Z,16.23
2022-12-11T00:55:45.950Z,16.23
2022-12-11T00:55:55.955Z,16.22
2022-12-11T00:56:05.955Z,16.22
2022-12-11T00:56:15.957Z,16.23
2022-12-11T00:56:25.957Z,16.22
2022-12-11T00:56:35.959Z,16.18
2022-12-11T00:56:45.963Z,16.22
2022-12-11T00:56:55.962Z,16.22
2022-12-11T00:57:05.961Z,16.18
2022-12-11T00:57:15.963Z,16.18
2022-12-11T00:57:25.963Z,16.18
2022-12-11T00:57:35.970Z,16.18
2022-12-11T00:57:45.965Z,16.18
2022-12-11T00:57:55.965Z,16.17
2022-12-11T00:58:05.969Z,16.18
2022-12-11T00:58:15.968Z,16.18
2022-12-11T00:58:25.973Z,16.17
2022-12-11T00:58:35.970Z,16.16
2022-12-11T00:58:45.970Z,16.18
2022-12-11T00:58:55.972Z,16.17
2022-12-11T00:59:05.973Z,16.16
2022-12-11T00:59:15.977Z,16.16
2022-12-11T00:59:25.976Z,16.16
2022-12-11T00:59:35.976Z,16.16
2022-12-11T00:59:45.982Z,16.16
2022-12-11T00:59:55.979Z,16.16
2022-12-11T01:00:05.978Z,16.16
2022-12-11T01:00:15.961Z,16.16
2022-12-11T01:00:25.983Z,16.14
2022-12-11T01:00:35.979Z,16.16
2022-12-11T01:00:45.984Z,16.14
2022-12-11T01:00:56.019Z,16.14
2022-12-11T01:01:06.034Z,16.14
2022-12-11T01:01:16.034Z,16.13
2022-12-11T01:01:26.035Z,16.13
2022-12-11T01:01:36.061Z,16.13
2022-12-11T01:01:46.052Z,16.13
2022-12-11T01:01:55.993Z,16.11
2022-12-11T01:02:05.981Z,16.11
2022-12-11T01:02:15.996Z,16.10
2022-12-11T01:02:26.051Z,16.13
2022-12-11T01:02:36.031Z,16.13
2022-12-11T01:02:46.049Z,16.10
2022-12-11T01:02:56.014Z,16.11
2022-12-11T01:03:06.102Z,16.11
2022-12-11T01:03:16.034Z,16.11
2022-12-11T01:03:26.000Z,16.08
2022-12-11T01:03:36.005Z,16.08
2022-12-11T01:03:46.005Z,16.08
2022-12-11T01:03:56.005Z,16.10
2022-12-11T01:04:05.986Z,16.08
2022-12-11T01:04:16.003Z,16.08
2022-12-11T01:04:26.003Z,16.10
2022-12-11T01:04:36.008Z,16.10
2022-12-11T01:04:46.007Z,16.08
2022-12-11T01:04:56.006Z,16.08
2022-12-11T01:05:06.008Z,16.08
2022-12-11T01:05:16.013Z,16.08
2022-12-11T01:05:26.008Z,16.07
2022-12-11T01:05:36.011Z,16.07
2022-12-11T01:05:46.015Z,16.07
2022-12-11T01:05:56.015Z,16.07
2022-12-11T01:06:06.017Z,16.07
2022-12-11T01:06:16.019Z,16.07
2022-12-11T01:06:26.016Z,16.07
2022-12-11T01:06:36.020Z,16.07
2022-12-11T01:06:46.024Z,16.06
2022-12-11T01:06:56.023Z,16.06
2022-12-11T01:07:06.021Z,16.06
2022-12-11T01:07:16.036Z,16.06
2022-12-11T01:07:26.024Z,16.04
2022-12-11T01:07:36.024Z,16.04
2022-12-11T01:07:46.110Z,16.06
2022-12-11T01:07:56.059Z,16.04
2022-12-11T01:08:06.054Z,16.03
2022-12-11T01:08:16.073Z,16.04
2022-12-11T01:08:26.083Z,16.04
2022-12-11T01:08:38.681Z,16.03
2022-12-11T01:08:46.030Z,16.03
2022-12-11T01:08:56.035Z,16.01
2022-12-11T01:09:06.035Z,16.01
2022-12-11T01:09:16.034Z,16.01
2022-12-11T01:09:26.952Z,16.01
2022-12-11T01:09:36.036Z,15.99
2022-12-11T01:09:46.039Z,16.01
2022-12-11T01:09:56.039Z,15.99
2022-12-11T01:10:06.086Z,15.99
2022-12-11T01:10:16.089Z,15.98
2022-12-11T01:10:26.201Z,15.98
2022-12-11T01:10:36.094Z,15.98
2022-12-11T01:10:46.105Z,15.98
2022-12-11T01:10:56.060Z,15.98
2022-12-11T01:11:06.041Z,15.99
2022-12-11T01:11:16.053Z,15.98
2022-12-11T01:11:26.043Z,15.98
2022-12-11T01:11:36.045Z,15.96
2022-12-11T01:11:46.047Z,15.98
2022-12-11T01:11:56.053Z,15.96
2022-12-11T01:12:06.051Z,15.98
2022-12-11T01:12:16.056Z,15.98
2022-12-11T01:12:26.053Z,15.96
2022-12-11T01:12:36.053Z,15.98
2022-12-11T01:12:46.055Z,15.99
2022-12-11T01:12:56.057Z,15.98
2022-12-11T01:13:06.055Z,15.98
2022-12-11T01:13:16.060Z,15.98
2022-12-11T01:13:26.057Z,15.96
2022-12-11T01:13:36.057Z,15.98
2022-12-11T01:13:46.063Z,15.98
2022-12-11T01:13:56.067Z,15.98
2022-12-11T01:14:06.064Z,15.96
2022-12-11T01:14:16.078Z,15.98
2022-12-11T01:14:26.134Z,15.98
2022-12-11T01:14:36.065Z,15.98
2022-12-11T01:14:46.073Z,15.95
2022-12-11T01:14:56.067Z,15.96
2022-12-11T01:15:06.067Z,15.98
2022-12-11T01:15:16.075Z,15.98
2022-12-11T01:15:26.071Z,15.99
2022-12-11T01:15:41.083Z,15.96
2022-12-11T01:15:47.071Z,15.96
2022-12-11T01:15:56.073Z,15.96
2022-12-11T01:16:06.072Z,15.98
2022-12-11T01:16:16.197Z,15.99
2022-12-11T01:16:26.126Z,15.98
2022-12-11T01:16:36.114Z,15.98
2022-12-11T01:16:46.112Z,15.98
2022-12-11T01:16:56.118Z,15.98
2022-12-11T01:17:06.121Z,15.98
2022-12-11T01:17:16.077Z,15.99
2022-12-11T01:17:26.078Z,15.98
2022-12-11T01:17:36.081Z,15.98
2022-12-11T01:17:46.083Z,15.98
2022-12-11T01:17:56.080Z,15.98
2022-12-11T01:18:06.082Z,15.98
2022-12-11T01:18:16.089Z,16.01
2022-12-11T01:18:26.083Z,15.99
2022-12-11T01:18:36.086Z,15.99
2022-12-11T01:18:46.089Z,15.99
2022-12-11T01:18:56.089Z,15.99
2022-12-11T01:19:06.087Z,15.99
2022-12-11T01:19:16.088Z,15.99
2022-12-11T01:19:26.952Z,15.98
2022-12-11T01:19:36.089Z,15.98
2022-12-11T01:19:46.092Z,15.99
2022-12-11T01:19:56.096Z,15.99
2022-12-11T01:20:06.092Z,15.99
2022-12-11T01:20:16.096Z,15.99
2022-12-11T01:20:26.096Z,16.01
2022-12-11T01:20:36.096Z,15.99
2022-12-11T01:20:46.099Z,16.01
2022-12-11T01:20:56.106Z,16.03
2022-12-11T01:21:06.099Z,16.03
2022-12-11T01:21:16.099Z,16.01
2022-12-11T01:21:26.104Z,16.01
2022-12-11T01:21:36.143Z,16.01
2022-12-11T01:21:46.112Z,16.03
2022-12-11T01:21:56.111Z,16.04
2022-12-11T01:22:06.101Z,16.01
2022-12-11T01:22:16.103Z,16.03
2022-12-11T01:22:26.103Z,16.04
2022-12-11T01:22:36.104Z,16.04
2022-12-11T01:22:46.106Z,16.04
2022-12-11T01:22:56.108Z,16.03
2022-12-11T01:23:06.107Z,16.04
2022-12-11T01:23:16.110Z,16.04
2022-12-11T01:23:26.109Z,16.06
2022-12-11T01:23:36.110Z,16.06
2022-12-11T01:23:46.111Z,16.04
2022-12-11T01:23:56.111Z,16.06
2022-12-11T01:24:06.111Z,16.04
2022-12-11T01:24:16.120Z,16.06
2022-12-11T01:24:26.131Z,16.06
2022-12-11T01:24:36.113Z,16.06
2022-12-11T01:24:46.118Z,16.06
2022-12-11T01:24:56.120Z,16.07
2022-12-11T01:25:06.117Z,16.08
2022-12-11T01:25:16.116Z,16.08
2022-12-11T01:25:26.119Z,16.08
2022-12-11T01:25:36.119Z,16.10
2022-12-11T01:25:46.120Z,16.10
2022-12-11T01:25:56.121Z,16.11
2022-12-11T01:26:06.129Z,16.11
2022-12-11T01:26:16.129Z,16.13
2022-12-11T01:26:26.125Z,16.13
2022-12-11T01:26:36.127Z,16.11
2022-12-11T01:26:46.184Z,16.13
2022-12-11T01:26:56.127Z,16.13
2022-12-11T01:27:06.124Z,16.13
2022-12-11T01:27:16.135Z,16.13
2022-12-11T01:27:26.125Z,16.13
2022-12-11T01:27:36.125Z,16.16
2022-12-11T01:27:46.127Z,16.14
2022-12-11T01:27:56.128Z,16.14
2022-12-11T01:28:06.131Z,16.14
2022-12-11T01:28:16.132Z,16.14
2022-12-11T01:28:26.130Z,16.17
2022-12-11T01:28:36.132Z,16.17
2022-12-11T01:28:46.116Z,16.16
2022-12-11T01:28:56.135Z,16.17
2022-12-11T01:29:06.134Z,16.17
2022-12-11T01:29:16.136Z,16.17
2022-12-11T01:29:26.135Z,16.18
2022-12-11T01:29:36.139Z,16.17
2022-12-11T01:29:46.153Z,16.18
2022-12-11T01:29:56.138Z,16.18
2022-12-11T01:30:06.141Z,16.17
2022-12-11T01:30:16.144Z,16.18
2022-12-11T01:30:26.184Z,16.18
2022-12-11T01:30:36.185Z,16.22
2022-12-11T01:30:46.192Z,16.18
2022-12-11T01:30:56.165Z,16.22
2022-12-11T01:31:06.243Z,16.18
2022-12-11T01:31:16.187Z,16.23
2022-12-11T01:31:26.180Z,16.23
2022-12-11T01:31:36.150Z,16.25
2022-12-11T01:31:46.151Z,16.26
2022-12-11T01:31:56.154Z,16.25
2022-12-11T01:32:06.160Z,16.26
2022-12-11T01:32:16.157Z,16.27
2022-12-11T01:32:26.152Z,16.27
2022-12-11T01:32:36.156Z,16.27
2022-12-11T01:32:46.139Z,16.27
2022-12-11T01:32:56.159Z,16.27
2022-12-11T01:33:06.157Z,16.29
2022-12-11T01:33:16.156Z,16.30
2022-12-11T01:33:26.156Z,16.30
2022-12-11T01:33:36.160Z,16.30
2022-12-11T01:33:46.163Z,16.30
2022-12-11T01:33:56.161Z,16.30
2022-12-11T01:34:06.158Z,16.33
2022-12-11T01:34:16.163Z,16.32
2022-12-11T01:34:26.163Z,16.32
2022-12-11T01:34:36.164Z,16.33
2022-12-11T01:34:46.165Z,16.32
2022-12-11T01:34:56.163Z,16.33
2022-12-11T01:35:06.190Z,16.33
2022-12-11T01:35:16.175Z,16.33
2022-12-11T01:35:26.188Z,16.33
2022-12-11T01:35:36.171Z,16.33
2022-12-11T01:35:46.172Z,16.33
2022-12-11T01:35:56.173Z,16.34
2022-12-11T01:36:06.175Z,16.34
2022-12-11T01:36:16.172Z,16.34
2022-12-11T01:36:26.173Z,16.34
2022-12-11T01:36:36.174Z,16.36
2022-12-11T01:36:46.177Z,16.37
2022-12-11T01:36:56.186Z,16.37
2022-12-11T01:37:06.177Z,16.34
2022-12-11T01:37:16.176Z,16.36
2022-12-11T01:37:26.175Z,16.36
2022-12-11T01:37:36.179Z,16.37
2022-12-11T01:37:46.177Z,16.37
2022-12-11T01:37:56.180Z,16.37
2022-12-11T01:38:06.181Z,16.36
2022-12-11T01:38:16.181Z,16.37
2022-12-11T01:38:26.185Z,16.37
2022-12-11T01:38:36.186Z,16.37
2022-12-11T01:38:46.186Z,16.40
2022-12-11T01:38:56.186Z,16.40
2022-12-11T01:39:06.186Z,16.37
2022-12-11T01:39:16.185Z,16.41
2022-12-11T01:39:26.185Z,16.41
2022-12-11T01:39:36.189Z,16.37
2022-12-11T01:39:46.193Z,16.40
2022-12-11T01:40:02.096Z,16.37
2022-12-11T01:40:07.191Z,16.40
2022-12-11T01:40:16.194Z,16.41
2022-12-11T01:40:26.192Z,16.37
2022-12-11T01:40:36.194Z,16.37
2022-12-11T01:40:52.101Z,16.40
2022-12-11T01:40:57.197Z,16.40
2022-12-11T01:41:06.195Z,16.40
2022-12-11T01:41:22.016Z,16.40
2022-12-11T01:41:27.201Z,16.40
2022-12-11T01:41:36.199Z,16.41
2022-12-11T01:41:46.197Z,16.40
2022-12-11T01:41:56.212Z,16.40
2022-12-11T01:42:06.200Z,16.42
2022-12-11T01:42:16.207Z,16.41
2022-12-11T01:42:26.205Z,16.41
2022-12-11T01:42:36.205Z,16.41
2022-12-11T01:42:46.205Z,16.41
2022-12-11T01:42:56.207Z,16.41
2022-12-11T01:43:06.206Z,16.41
2022-12-11T01:43:16.212Z,16.41
2022-12-11T01:43:26.233Z,16.40
2022-12-11T01:43:36.193Z,16.41
2022-12-11T01:43:46.211Z,16.40
2022-12-11T01:43:56.212Z,16.41
2022-12-11T01:44:06.220Z,16.40
2022-12-11T01:44:16.212Z,16.41
2022-12-11T01:44:26.214Z,16.41
2022-12-11T01:44:36.212Z,16.40
2022-12-11T01:44:46.215Z,16.41
2022-12-11T01:44:56.217Z,16.41
2022-12-11T01:45:06.217Z,16.41
2022-12-11T01:45:16.220Z,16.41
2022-12-11T01:45:27.243Z,16.40
2022-12-11T01:45:36.223Z,16.41
2022-12-11T01:45:46.269Z,16.41
2022-12-11T01:45:56.285Z,16.40
2022-12-11T01:46:06.243Z,16.41
2022-12-11T01:46:16.265Z,16.41
2022-12-11T01:46:26.295Z,16.40
2022-12-11T01:46:36.230Z,16.41
2022-12-11T01:46:46.229Z,16.41
2022-12-11T01:46:56.288Z,16.40
2022-12-11T01:47:06.230Z,16.40
2022-12-11T01:47:16.232Z,16.41
2022-12-11T01:47:26.232Z,16.41
2022-12-11T01:47:36.234Z,16.40
2022-12-11T01:47:46.235Z,16.40
2022-12-11T01:47:56.236Z,16.40
2022-12-11T01:48:06.235Z,16.41
2022-12-11T01:48:16.236Z,16.40
2022-12-11T01:48:26.235Z,16.40
2022-12-11T01:48:41.961Z,16.37
2022-12-11T01:48:47.241Z,16.36
2022-12-11T01:48:56.246Z,16.40
2022-12-11T01:49:06.243Z,16.37
2022-12-11T01:49:16.241Z,16.37
2022-12-11T01:49:26.250Z,16.37
2022-12-11T01:49:36.242Z,16.37
2022-12-11T01:49:46.244Z,16.40
2022-12-11T01:49:56.247Z,16.37
2022-12-11T01:50:06.247Z,16.37
2022-12-11T01:50:16.246Z,16.37
2022-12-11T01:50:26.246Z,16.37
2022-12-11T01:50:36.250Z,16.37
2022-12-11T01:50:46.248Z,16.37
2022-12-11T01:50:56.248Z,16.36
2022-12-11T01:51:06.250Z,16.36
2022-12-11T01:51:16.250Z,16.34
2022-12-11T01:51:26.249Z,16.34
2022-12-11T01:51:36.251Z,16.36
2022-12-11T01:51:46.250Z,16.34
2022-12-11T01:51:56.251Z,16.36
2022-12-11T01:52:06.256Z,16.34
2022-12-11T01:52:16.235Z,16.36
2022-12-11T01:52:26.252Z,16.36
2022-12-11T01:52:36.252Z,16.34
2022-12-11T01:52:46.253Z,16.36
2022-12-11T01:52:56.255Z,16.34
2022-12-11T01:53:06.260Z,16.34
2022-12-11T01:53:16.258Z,16.34
2022-12-11T01:53:26.257Z,16.34
2022-12-11T01:53:36.260Z,16.34
2022-12-11T01:53:46.261Z,16.34
2022-12-11T01:53:56.260Z,16.36
2022-12-11T01:54:06.264Z,16.36
2022-12-11T01:54:16.267Z,16.34
2022-12-11T01:54:26.269Z,16.34
2022-12-11T01:54:36.265Z,16.33
2022-12-11T01:54:46.264Z,16.34
2022-12-11T01:54:56.265Z,16.33
2022-12-11T01:55:06.270Z,16.33
2022-12-11T01:55:16.264Z,16.34
2022-12-11T01:55:26.264Z,16.33
2022-12-11T01:55:36.269Z,16.33
2022-12-11T01:55:46.270Z,16.34
2022-12-11T01:55:56.269Z,16.33
2022-12-11T01:56:06.256Z,16.33
2022-12-11T01:56:16.271Z,16.33
2022-12-11T01:56:26.272Z,16.32
2022-12-11T01:56:36.274Z,16.33
2022-12-11T01:56:46.276Z,16.34
2022-12-11T01:56:56.279Z,16.33
2022-12-11T01:57:06.277Z,16.33
2022-12-11T01:57:16.274Z,16.33
2022-12-11T01:57:26.277Z,16.32
2022-12-11T01:57:36.282Z,16.32
2022-12-11T01:57:46.279Z,16.33
2022-12-11T01:57:56.278Z,16.32
2022-12-11T01:58:06.284Z,16.33
2022-12-11T01:58:16.280Z,16.32
2022-12-11T01:58:26.283Z,16.30
2022-12-11T01:58:36.287Z,16.30
2022-12-11T01:58:46.289Z,16.30
2022-12-11T01:58:56.296Z,16.32
2022-12-11T01:59:06.285Z,16.30
2022-12-11T01:59:16.296Z,16.30
2022-12-11T01:59:26.286Z,16.30
2022-12-11T01:59:36.284Z,16.30
2022-12-11T01:59:46.287Z,16.29
2022-12-11T01:59:56.303Z,16.30
2022-12-11T02:00:06.294Z,16.29
2022-12-11T02:00:16.306Z,16.29
2022-12-11T02:00:26.292Z,16.30
2022-12-11T02:00:36.298Z,16.27
2022-12-11T02:00:46.293Z,16.29
2022-12-11T02:00:56.331Z,16.29
2022-12-11T02:01:06.382Z,16.27
2022-12-11T02:01:16.350Z,16.29
2022-12-11T02:01:26.348Z,16.29
2022-12-11T02:01:36.391Z,16.26
2022-12-11T02:01:46.307Z,16.27
2022-12-11T02:01:56.304Z,16.26
2022-12-11T02:02:06.336Z,16.27
2022-12-11T02:02:16.381Z,16.26
2022-12-11T02:02:26.390Z,16.26
2022-12-11T02:02:36.373Z,16.26
2022-12-11T02:02:46.330Z,16.26
2022-12-11T02:02:56.306Z,16.25
2022-12-11T02:03:06.305Z,16.25
2022-12-11T02:03:16.307Z,16.25
2022-12-11T02:03:26.316Z,16.23
2022-12-11T02:03:36.308Z,16.25
2022-12-11T02:03:46.309Z,16.25
2022-12-11T02:03:56.310Z,16.23
2022-12-11T02:04:06.313Z,16.23
2022-12-11T02:04:16.309Z,16.25
2022-12-11T02:04:26.313Z,16.23
2022-12-11T02:04:36.314Z,16.25
2022-12-11T02:04:46.314Z,16.25
2022-12-11T02:04:56.315Z,16.23
2022-12-11T02:05:06.316Z,16.22
2022-12-11T02:05:16.320Z,16.22
2022-12-11T02:05:26.318Z,16.23
2022-12-11T02:05:36.318Z,16.23
2022-12-11T02:05:46.320Z,16.18
2022-12-11T02:05:56.320Z,16.22
2022-12-11T02:06:06.333Z,16.22
2022-12-11T02:06:16.325Z,16.18
2022-12-11T02:06:26.325Z,16.18
2022-12-11T02:06:36.324Z,16.22
2022-12-11T02:06:46.327Z,16.18
2022-12-11T02:06:56.328Z,16.17
2022-12-11T02:07:06.341Z,16.18
2022-12-11T02:07:16.326Z,16.18
2022-12-11T02:07:26.330Z,16.16
2022-12-11T02:07:36.328Z,16.16
2022-12-11T02:07:46.410Z,16.17
2022-12-11T02:07:56.392Z,16.17
2022-12-11T02:08:06.420Z,16.17
2022-12-11T02:08:16.401Z,16.16
2022-12-11T02:08:26.392Z,16.16
2022-12-11T02:08:36.333Z,16.17
2022-12-11T02:08:46.334Z,16.16